Time;durP1;ratioP1;P1;durP2;ratioP2;P2;SDS_P1;SDS_P2;PMS_P1;PMS_P2;Temp;Humidity;BMP_temperature;BMP_pressure;BME280_temperature;BME280_humidity;BME280_pressure;Samples;Min_cycle;Max_cycle;Signal;HPM_P1;HPM_P2
2021/10/06 00:02:53;;;;;;;4.82;4.32;;;;;;;;;;10271637;28;20048;-55
2021/10/06 00:07:52;;;;;;;7.45;5.15;;;;;;;;;;10279393;28;20486;-55
2021/10/06 00:12:50;;;;;;;11.05;5.22;;;;;;;;;;10281247;28;20063;-54
2021/10/06 00:17:50;;;;;;;5.80;4.60;;;;;;;;;;10280908;28;20063;-55
2021/10/06 00:22:48;;;;;;;10.25;5.10;;;;;;;;;;10280972;28;20461;-54
2021/10/06 00:27:48;;;;;;;10.60;4.82;;;;;;;;;;10280847;28;20049;-54
2021/10/06 00:32:47;;;;;;;6.22;4.95;;;;;;;;;;10280530;28;20092;-55
2021/10/06 00:37:46;;;;;;;10.18;4.78;;;;;;;;;;10280411;28;20498;-52
2021/10/06 00:42:45;;;;;;;7.05;4.63;;;;;;;;;;10280497;28;20053;-56
2021/10/06 00:47:43;;;;;;;9.48;5.00;;;;;;;;;;10280339;28;20037;-53
2021/10/06 00:52:41;;;;;;;12.60;5.78;;;;;;;;;;10279688;28;20077;-54
2021/10/06 00:57:40;;;;;;;8.45;5.38;;;;;;;;;;10279949;28;20486;-55
2021/10/06 01:02:39;;;;;;;9.50;5.93;;;;;;;;;;10279715;28;20076;-54
2021/10/06 01:07:38;;;;;;;8.45;5.35;;;;;;;;;;10279571;28;20073;-54
2021/10/06 01:12:37;;;;;;;6.90;4.32;;;;;;;;;;10278963;28;20080;-52
2021/10/06 01:17:36;;;;;;;13.00;5.22;;;;;;;;;;10278275;28;20083;-54
2021/10/06 01:22:36;;;;;;;5.60;5.10;;;;;;;;;;10278660;28;20044;-56
2021/10/06 01:27:35;;;;;;;8.13;5.40;;;;;;;;;;10278575;28;20486;-55
2021/10/06 01:32:35;;;;;;;10.32;5.97;;;;;;;;;;10277969;28;20095;-55
2021/10/06 01:37:33;;;;;;;8.30;5.20;;;;;;;;;;10278260;28;20056;-55
2021/10/06 01:42:33;;;;;;;8.80;5.18;;;;;;;;;;10276625;28;20045;-55
2021/10/06 01:47:32;;;;;;;9.57;5.07;;;;;;;;;;10277799;28;20076;-54
2021/10/06 01:52:30;;;;;;;8.13;5.57;;;;;;;;;;10277321;28;20075;-57
2021/10/06 01:57:28;;;;;;;8.77;5.32;;;;;;;;;;10276656;28;20052;-55
2021/10/06 02:02:28;;;;;;;9.50;5.53;;;;;;;;;;10277039;28;20521;-54
2021/10/06 02:07:26;;;;;;;6.90;4.40;;;;;;;;;;10277123;28;20044;-53
2021/10/06 02:12:25;;;;;;;9.88;4.85;;;;;;;;;;10276987;28;20083;-52
2021/10/06 02:17:23;;;;;;;11.60;4.95;;;;;;;;;;10276164;28;20076;-54
2021/10/06 02:22:23;;;;;;;8.18;6.18;;;;;;;;;;10276547;28;20053;-53
2021/10/06 02:27:21;;;;;;;9.90;5.38;;;;;;;;;;10275922;28;20044;-53
2021/10/06 02:32:19;;;;;;;8.95;5.40;;;;;;;;;;10275056;28;20107;-54
2021/10/06 02:37:17;;;;;;;6.70;5.68;;;;;;;;;;10275537;28;20045;-52
2021/10/06 02:42:17;;;;;;;9.23;6.65;;;;;;;;;;10275830;28;20051;-55
2021/10/06 02:47:15;;;;;;;11.73;6.38;;;;;;;;;;10275068;28;20049;-53
2021/10/06 02:52:13;;;;;;;8.70;6.32;;;;;;;;;;10275609;28;20136;-55
2021/10/06 02:57:12;;;;;;;12.68;6.50;;;;;;;;;;10275756;28;20140;-54
2021/10/06 03:02:11;;;;;;;9.48;6.82;;;;;;;;;;10275585;28;20069;-53
2021/10/06 03:07:09;;;;;;;8.00;6.50;;;;;;;;;;10275574;28;20124;-54
2021/10/06 03:12:08;;;;;;;9.90;5.90;;;;;;;;;;10275050;28;20411;-54
2021/10/06 03:17:06;;;;;;;12.73;7.22;;;;;;;;;;10275329;28;20056;-55
2021/10/06 03:22:06;;;;;;;10.65;6.43;;;;;;;;;;10274538;28;20073;-51
2021/10/06 03:27:04;;;;;;;13.75;6.45;;;;;;;;;;10275186;28;20049;-54
2021/10/06 03:32:03;;;;;;;9.95;6.88;;;;;;;;;;10274490;28;20089;-55
2021/10/06 03:37:01;;;;;;;13.82;7.43;;;;;;;;;;10275016;28;20076;-57
2021/10/06 03:42:01;;;;;;;9.95;8.30;;;;;;;;;;10280520;28;20490;-54
2021/10/06 03:46:59;;;;;;;17.25;9.10;;;;;;;;;;10282841;28;20080;-52
2021/10/06 03:51:57;;;;;;;15.68;9.25;;;;;;;;;;10282735;28;20509;-51
2021/10/06 03:56:56;;;;;;;16.55;11.52;;;;;;;;;;10282819;28;20048;-54
2021/10/06 04:01:56;;;;;;;21.27;10.60;;;;;;;;;;10282417;28;20064;-51
2021/10/06 04:06:54;;;;;;;17.42;11.10;;;;;;;;;;10282365;28;20045;-56
2021/10/06 04:11:52;;;;;;;20.15;12.50;;;;;;;;;;10281961;28;20488;-49
2021/10/06 04:16:50;;;;;;;17.55;13.05;;;;;;;;;;10281753;28;20079;-54
2021/10/06 04:21:50;;;;;;;19.45;11.88;;;;;;;;;;10281887;28;20049;-55
2021/10/06 04:26:48;;;;;;;14.90;11.65;;;;;;;;;;10280892;28;20041;-53
2021/10/06 04:31:47;;;;;;;17.13;12.70;;;;;;;;;;10280673;28;20100;-54
2021/10/06 04:36:45;;;;;;;17.50;12.93;;;;;;;;;;10280589;28;20517;-55
2021/10/06 04:41:45;;;;;;;18.75;12.95;;;;;;;;;;10280670;28;20045;-57
2021/10/06 04:46:43;;;;;;;26.13;13.85;;;;;;;;;;10280568;28;20509;-58
2021/10/06 04:51:42;;;;;;;16.00;11.30;;;;;;;;;;10282817;28;20071;-55
2021/10/06 04:56:40;;;;;;;19.27;11.88;;;;;;;;;;10318181;28;20072;-54
2021/10/06 05:01:40;;;;;;;14.52;11.75;;;;;;;;;;10316714;28;20076;-57
2021/10/06 05:06:38;;;;;;;21.02;10.68;;;;;;;;;;10298445;28;20076;-56
2021/10/06 05:11:36;;;;;;;13.25;10.88;;;;;;;;;;10295227;28;20481;-53
2021/10/06 05:16:35;;;;;;;39.15;25.20;;;;;;;;;;10289905;28;20079;-53
2021/10/06 05:21:34;;;;;;;20.48;11.85;;;;;;;;;;10295001;28;20036;-51
2021/10/06 05:26:33;;;;;;;18.08;12.80;;;;;;;;;;10300295;28;20072;-51
2021/10/06 05:31:31;;;;;;;20.02;11.90;;;;;;;;;;10294262;28;20077;-54
2021/10/06 05:36:29;;;;;;;17.33;9.65;;;;;;;;;;10282549;28;20071;-57
2021/10/06 05:41:29;;;;;;;13.70;9.43;;;;;;;;;;10301717;28;20061;-56
2021/10/06 05:46:27;;;;;;;33.70;19.42;;;;;;;;;;10294812;28;20045;-57
2021/10/06 05:51:26;;;;;;;21.05;14.25;;;;;;;;;;10278121;28;20077;-57
2021/10/06 05:56:24;;;;;;;18.13;11.65;;;;;;;;;;10278141;28;20045;-56
2021/10/06 06:01:25;;;;;;;33.97;25.63;;;;;;;;;;10276703;28;20045;-55
2021/10/06 06:06:24;;;;;;;18.45;13.27;;;;;;;;;;10266911;28;20518;-56
2021/10/06 06:11:22;;;;;;;15.35;11.15;;;;;;;;;;10269262;28;20068;-53
2021/10/06 06:16:21;;;;;;;19.70;11.70;;;;;;;;;;10271055;28;20069;-55
2021/10/06 06:21:20;;;;;;;26.42;10.30;;;;;;;;;;10275473;28;20072;-56
2021/10/06 06:26:19;;;;;;;13.32;11.70;;;;;;;;;;10277114;28;20081;-55
2021/10/06 06:31:18;;;;;;;18.05;10.73;;;;;;;;;;10276458;28;20095;-58
2021/10/06 06:36:17;;;;;;;17.42;11.05;;;;;;;;;;10276804;28;20088;-55
2021/10/06 06:41:16;;;;;;;15.85;10.05;;;;;;;;;;10276443;28;20505;-55
2021/10/06 06:46:14;;;;;;;17.63;8.00;;;;;;;;;;10276171;28;20076;-52
2021/10/06 06:51:13;;;;;;;14.90;7.90;;;;;;;;;;10275970;28;20076;-57
2021/10/06 06:56:11;;;;;;;30.27;23.92;;;;;;;;;;10276097;28;20486;-53
2021/10/06 07:01:11;;;;;;;9.88;6.57;;;;;;;;;;10276074;28;20056;-56
2021/10/06 07:06:09;;;;;;;14.18;6.85;;;;;;;;;;10275894;28;20049;-55
2021/10/06 07:11:08;;;;;;;12.25;6.60;;;;;;;;;;10275926;28;20083;-56
2021/10/06 07:16:06;;;;;;;7.38;5.95;;;;;;;;;;10279447;28;20072;-48
2021/10/06 07:21:06;;;;;;;8.25;5.82;;;;;;;;;;10283934;28;20049;-52
2021/10/06 07:26:04;;;;;;;9.93;6.38;;;;;;;;;;10283170;28;20069;-56
2021/10/06 07:31:02;;;;;;;15.20;7.25;;;;;;;;;;10282992;28;20101;-51
2021/10/06 07:36:01;;;;;;;14.40;9.13;;;;;;;;;;10283300;28;20514;-52
2021/10/06 07:41:00;;;;;;;10.82;6.35;;;;;;;;;;10282929;28;20091;-56
2021/10/06 07:45:59;;;;;;;14.25;7.40;;;;;;;;;;10283021;28;20482;-54
2021/10/06 07:51:01;;;;;;;15.80;7.40;;;;;;;;;;10282446;28;20076;-54
2021/10/06 07:56:01;;;;;;;10.77;7.15;;;;;;;;;;10282757;28;20048;-54
2021/10/06 08:01:00;;;;;;;11.13;6.53;;;;;;;;;;10281431;28;20053;-52
2021/10/06 08:05:59;;;;;;;12.32;7.38;;;;;;;;;;10281926;28;20533;-51
2021/10/06 08:10:57;;;;;;;16.63;6.65;;;;;;;;;;10281268;28;20073;-55
2021/10/06 08:15:58;;;;;;;21.63;7.35;;;;;;;;;;10281193;28;20045;-50
2021/10/06 08:20:57;;;;;;;14.65;6.65;;;;;;;;;;10281506;28;20076;-54
2021/10/06 08:25:56;;;;;;;9.07;5.22;;;;;;;;;;10281023;28;20107;-54
2021/10/06 08:30:54;;;;;;;13.07;5.30;;;;;;;;;;10280198;28;20048;-54
2021/10/06 08:35:54;;;;;;;8.88;6.22;;;;;;;;;;10280997;28;20052;-52
2021/10/06 08:40:53;;;;;;;14.18;7.57;;;;;;;;;;10280121;28;20045;-55
2021/10/06 08:45:51;;;;;;;9.35;6.57;;;;;;;;;;10280261;28;20494;-54
2021/10/06 08:50:50;;;;;;;12.43;7.32;;;;;;;;;;10280495;28;20040;-56
2021/10/06 08:55:49;;;;;;;16.98;8.65;;;;;;;;;;10280271;28;20044;-54
2021/10/06 09:00:51;;;;;;;12.25;7.03;;;;;;;;;;10279897;28;20525;-52
2021/10/06 09:05:59;;;;;;;13.45;6.88;;;;;;;;;;10279840;28;20517;-54
2021/10/06 09:10:59;;;;;;;11.43;6.40;;;;;;;;;;10279141;28;20068;-53
2021/10/06 09:15:59;;;;;;;12.13;5.70;;;;;;;;;;10279506;28;20045;-56
2021/10/06 09:20:58;;;;;;;7.85;5.05;;;;;;;;;;10279322;28;20041;-54
2021/10/06 09:25:57;;;;;;;11.00;5.13;;;;;;;;;;10279325;28;20080;-55
2021/10/06 09:30:59;;;;;;;12.70;5.72;;;;;;;;;;10278604;28;20510;-56
2021/10/06 09:36:07;;;;;;;10.65;4.90;;;;;;;;;;10279296;28;20084;-52
2021/10/06 09:41:23;;;;;;;14.75;5.70;;;;;;;;;;10277344;28;20048;-54
2021/10/06 09:46:24;;;;;;;15.60;5.20;;;;;;;;;;10278461;28;20110;-62
2021/10/06 09:51:24;;;;;;;11.07;4.20;;;;;;;;;;10278220;28;20045;-59
2021/10/06 09:56:23;;;;;;;11.60;4.88;;;;;;;;;;10278161;28;20048;-61
2021/10/06 10:01:24;;;;;;;6.53;5.00;;;;;;;;;;10277687;28;20064;-61
2021/10/06 10:06:22;;;;;;;8.30;3.72;;;;;;;;;;10277699;28;20517;-60
2021/10/06 10:11:21;;;;;;;7.22;4.03;;;;;;;;;;10277252;28;20059;-61
2021/10/06 10:16:19;;;;;;;7.70;3.35;;;;;;;;;;10277212;28;20056;-60
2021/10/06 10:21:20;;;;;;;6.80;3.83;;;;;;;;;;10276961;28;20406;-60
2021/10/06 10:26:22;;;;;;;11.70;4.20;;;;;;;;;;10277138;28;20048;-60
2021/10/06 10:31:22;;;;;;;10.07;4.45;;;;;;;;;;10276614;28;20059;-59
2021/10/06 10:36:40;;;;;;;6.38;3.33;;;;;;;;;;10276590;28;20099;-59
2021/10/06 10:41:43;;;;;;;5.70;3.78;;;;;;;;;;10276531;28;20072;-61
2021/10/06 10:46:56;;;;;;;6.72;3.80;;;;;;;;;;10276558;28;20056;-59
2021/10/06 10:51:56;;;;;;;10.25;6.55;;;;;;;;;;10275487;28;20041;-59
2021/10/06 10:56:56;;;;;;;12.63;5.20;;;;;;;;;;10276409;28;20045;-56
2021/10/06 11:01:56;;;;;;;4.93;3.63;;;;;;;;;;10276140;28;20045;-59
2021/10/06 11:06:56;;;;;;;5.97;4.22;;;;;;;;;;10276075;28;20049;-58
2021/10/06 11:11:56;;;;;;;6.93;4.93;;;;;;;;;;10275714;28;20052;-58
2021/10/06 11:17:05;;;;;;;9.68;3.78;;;;;;;;;;10275883;28;20045;-57
2021/10/06 11:22:35;;;;;;;6.28;3.45;;;;;;;;;;10275854;28;20044;-57
2021/10/06 11:27:45;;;;;;;7.88;4.47;;;;;;;;;;10275903;28;20386;-57
2021/10/06 11:32:45;;;;;;;4.50;3.33;;;;;;;;;;10275224;28;20099;-58
2021/10/06 11:37:43;;;;;;;7.80;3.13;;;;;;;;;;10274775;28;20056;-59
2021/10/06 11:42:42;;;;;;;6.50;3.35;;;;;;;;;;10275528;28;20053;-58
2021/10/06 11:47:42;;;;;;;12.77;4.55;;;;;;;;;;10275515;28;20045;-57
2021/10/06 11:52:40;;;;;;;9.18;3.80;;;;;;;;;;10274585;28;20079;-56
2021/10/06 11:57:39;;;;;;;10.05;3.85;;;;;;;;;;10275396;28;20072;-55
2021/10/06 12:02:37;;;;;;;6.75;4.90;;;;;;;;;;10279817;28;20490;-56
2021/10/06 12:07:37;;;;;;;9.10;4.90;;;;;;;;;;10281827;28;20077;-56
2021/10/06 12:12:37;;;;;;;7.32;4.47;;;;;;;;;;10282056;28;20084;-57
2021/10/06 12:17:36;;;;;;;7.22;3.92;;;;;;;;;;10282208;28;20041;-55
2021/10/06 12:22:35;;;;;;;8.32;4.57;;;;;;;;;;10281907;28;20045;-58
2021/10/06 12:27:36;;;;;;;10.18;4.30;;;;;;;;;;10281849;28;20045;-58
2021/10/06 12:32:35;;;;;;;10.82;5.45;;;;;;;;;;10281068;28;20057;-56
2021/10/06 12:37:33;;;;;;;6.30;3.42;;;;;;;;;;10281320;28;20498;-58
2021/10/06 12:42:32;;;;;;;8.68;4.22;;;;;;;;;;10281211;28;20037;-57
2021/10/06 12:47:31;;;;;;;5.47;3.42;;;;;;;;;;10280967;28;20048;-57
2021/10/06 12:52:30;;;;;;;12.23;5.07;;;;;;;;;;10280802;28;20075;-56
2021/10/06 12:57:28;;;;;;;6.45;3.97;;;;;;;;;;10280594;28;20041;-55
2021/10/06 13:02:27;;;;;;;4.88;3.78;;;;;;;;;;10280629;28;20081;-57
2021/10/06 13:07:27;;;;;;;9.18;3.90;;;;;;;;;;10280237;28;20077;-57
2021/10/06 13:12:25;;;;;;;5.20;4.00;;;;;;;;;;10279027;28;20048;-56
2021/10/06 13:17:23;;;;;;;12.68;4.82;;;;;;;;;;10279792;28;20099;-54
2021/10/06 13:22:22;;;;;;;9.10;3.60;;;;;;;;;;10279712;28;20059;-54
2021/10/06 13:27:22;;;;;;;10.98;4.25;;;;;;;;;;10279572;28;20044;-55
2021/10/06 13:32:20;;;;;;;9.50;4.03;;;;;;;;;;10279011;28;20545;-53
2021/10/06 13:37:18;;;;;;;7.00;4.03;;;;;;;;;;10278829;28;20068;-56
2021/10/06 13:42:17;;;;;;;9.55;4.25;;;;;;;;;;10278713;28;20405;-56
2021/10/06 13:47:16;;;;;;;12.68;4.85;;;;;;;;;;10278640;28;20045;-55
2021/10/06 13:52:15;;;;;;;7.95;4.13;;;;;;;;;;10278225;28;20052;-57
2021/10/06 13:57:13;;;;;;;9.70;4.15;;;;;;;;;;10278104;28;20087;-54
2021/10/06 14:02:11;;;;;;;15.35;4.72;;;;;;;;;;10278392;28;20072;-57
2021/10/06 14:07:11;;;;;;;9.50;4.00;;;;;;;;;;10278115;28;20052;-54
2021/10/06 14:12:10;;;;;;;5.60;4.05;;;;;;;;;;10277686;28;20056;-58
2021/10/06 14:17:08;;;;;;;10.50;3.65;;;;;;;;;;10277614;28;20514;-54
2021/10/06 14:22:09;;;;;;;12.30;7.00;;;;;;;;;;10276704;28;20052;-57
2021/10/06 14:27:09;;;;;;;14.00;4.57;;;;;;;;;;10276810;28;20080;-55
2021/10/06 14:32:07;;;;;;;9.80;5.45;;;;;;;;;;10277262;28;20053;-56
2021/10/06 14:37:08;;;;;;;9.65;4.72;;;;;;;;;;10275798;28;20103;-55
2021/10/06 14:42:06;;;;;;;8.68;4.30;;;;;;;;;;10276450;28;20050;-57
2021/10/06 14:47:06;;;;;;;10.65;7.28;;;;;;;;;;10292453;28;20084;-57
2021/10/06 14:52:05;;;;;;;10.68;6.60;;;;;;;;;;10276450;28;20076;-55
2021/10/06 14:57:05;;;;;;;11.00;4.82;;;;;;;;;;10276183;28;20112;-58
2021/10/06 15:02:04;;;;;;;15.20;5.82;;;;;;;;;;10276313;28;20048;-56
2021/10/06 15:07:04;;;;;;;12.15;5.53;;;;;;;;;;10276047;28;20321;-57
2021/10/06 15:12:03;;;;;;;9.07;6.05;;;;;;;;;;10275280;28;20052;-54
2021/10/06 15:17:03;;;;;;;9.55;4.95;;;;;;;;;;10275878;28;20073;-53
2021/10/06 15:22:02;;;;;;;7.63;4.57;;;;;;;;;;10275128;28;20053;-64
2021/10/06 15:27:02;;;;;;;6.05;4.35;;;;;;;;;;10272985;28;20068;-64
2021/10/06 15:32:00;;;;;;;15.85;7.90;;;;;;;;;;10275491;28;20096;-64
2021/10/06 15:36:58;;;;;;;8.73;5.20;;;;;;;;;;10278570;28;20068;-63
2021/10/06 15:41:59;;;;;;;15.57;6.03;;;;;;;;;;10283257;28;20049;-63
2021/10/06 15:46:59;;;;;;;9.45;3.72;;;;;;;;;;10283381;28;20049;-63
2021/10/06 15:51:57;;;;;;;14.10;3.97;;;;;;;;;;10282808;28;20494;-64
2021/10/06 15:56:56;;;;;;;6.82;3.20;;;;;;;;;;10282660;28;20513;-64
2021/10/06 16:01:54;;;;;;;8.77;4.00;;;;;;;;;;10282590;28;20045;-63
2021/10/06 16:06:54;;;;;;;9.40;3.88;;;;;;;;;;10282452;28;20049;-64
2021/10/06 16:11:53;;;;;;;6.25;2.90;;;;;;;;;;10286383;28;20057;-63
2021/10/06 16:16:51;;;;;;;13.55;5.68;;;;;;;;;;10276151;28;20068;-64
2021/10/06 16:21:50;;;;;;;13.18;3.53;;;;;;;;;;10277568;28;20076;-64
2021/10/06 16:26:50;;;;;;;12.73;3.38;;;;;;;;;;10277397;28;20357;-64
2021/10/06 16:31:49;;;;;;;15.80;4.22;;;;;;;;;;10274909;28;20077;-63
2021/10/06 16:36:47;;;;;;;15.65;4.85;;;;;;;;;;10280945;28;20072;-64
2021/10/06 16:41:45;;;;;;;13.50;4.13;;;;;;;;;;10280302;28;20037;-64
2021/10/06 16:46:51;;;;;;;11.95;4.05;;;;;;;;;;10279311;28;20501;-64
2021/10/06 16:51:49;;;;;;;7.90;3.58;;;;;;;;;;10280954;28;20045;-64
2021/10/06 16:56:47;;;;;;;8.05;3.50;;;;;;;;;;10280153;28;20087;-64
2021/10/06 17:01:46;;;;;;;7.50;3.67;;;;;;;;;;10292107;28;20072;-65
2021/10/06 17:06:46;;;;;;;6.85;3.20;;;;;;;;;;10295011;28;20430;-63
2021/10/06 17:11:50;;;;;;;5.82;3.75;;;;;;;;;;10297221;28;20517;-63
2021/10/06 17:16:48;;;;;;;7.05;2.80;;;;;;;;;;10302470;28;20498;-64
2021/10/06 17:21:50;;;;;;;7.70;3.20;;;;;;;;;;10289292;28;20423;-63
2021/10/06 17:26:49;;;;;;;4.65;2.97;;;;;;;;;;10291946;28;20087;-63
2021/10/06 17:31:48;;;;;;;6.60;3.15;;;;;;;;;;10285544;28;20080;-63
2021/10/06 17:36:47;;;;;;;5.78;3.40;;;;;;;;;;10299403;28;20077;-64
2021/10/06 17:41:47;;;;;;;14.95;3.88;;;;;;;;;;10295539;28;20056;-64
2021/10/06 17:46:45;;;;;;;6.93;4.35;;;;;;;;;;10300467;28;20075;-64
2021/10/06 17:51:44;;;;;;;7.28;3.78;;;;;;;;;;10294345;28;20476;-62
2021/10/06 17:56:44;;;;;;;11.20;4.10;;;;;;;;;;10288946;28;20085;-64
2021/10/06 18:02:01;;;;;;;4.30;2.97;;;;;;;;;;10273920;28;20077;-62
2021/10/06 18:07:00;;;;;;;8.20;3.95;;;;;;;;;;10274268;28;20071;-62
2021/10/06 18:12:00;;;;;;;7.63;4.88;;;;;;;;;;10276915;28;20068;-63
2021/10/06 18:16:59;;;;;;;6.75;3.80;;;;;;;;;;10277249;28;20489;-63
2021/10/06 18:21:58;;;;;;;9.20;4.10;;;;;;;;;;10277089;28;20544;-63
2021/10/06 18:26:56;;;;;;;7.05;3.00;;;;;;;;;;10277418;28;20468;-63
2021/10/06 18:31:56;;;;;;;7.03;3.63;;;;;;;;;;10276871;28;20403;-63
2021/10/06 18:36:59;;;;;;;7.53;3.33;;;;;;;;;;10276892;28;20080;-63
2021/10/06 18:41:57;;;;;;;9.05;3.72;;;;;;;;;;10276761;28;20058;-60
2021/10/06 18:46:57;;;;;;;7.90;4.05;;;;;;;;;;10275713;28;20053;-60
2021/10/06 18:51:56;;;;;;;9.20;4.32;;;;;;;;;;10274569;28;20072;-61
2021/10/06 18:56:54;;;;;;;9.45;3.83;;;;;;;;;;10274731;28;20077;-60
2021/10/06 19:01:53;;;;;;;11.25;4.15;;;;;;;;;;10273860;28;20068;-59
2021/10/06 19:06:53;;;;;;;9.82;3.90;;;;;;;;;;10273821;28;20073;-59
2021/10/06 19:11:53;;;;;;;13.77;4.53;;;;;;;;;;10277968;28;20601;-60
2021/10/06 19:16:52;;;;;;;14.07;4.82;;;;;;;;;;10282080;28;20087;-60
2021/10/06 19:21:51;;;;;;;9.52;3.88;;;;;;;;;;10298540;28;20075;-60
2021/10/06 19:26:51;;;;;;;12.88;4.22;;;;;;;;;;10298110;28;20105;-61
2021/10/06 19:31:50;;;;;;;9.15;4.20;;;;;;;;;;10298700;28;20077;-61
2021/10/06 19:36:50;;;;;;;11.45;3.72;;;;;;;;;;10300102;28;20076;-60
2021/10/06 19:41:50;;;;;;;7.85;3.88;;;;;;;;;;10291932;28;20076;-62
2021/10/06 19:46:50;;;;;;;7.63;4.10;;;;;;;;;;10287560;28;20072;-61
2021/10/06 19:51:48;;;;;;;9.70;4.10;;;;;;;;;;10300411;28;20103;-61
2021/10/06 19:56:47;;;;;;;9.15;4.43;;;;;;;;;;10286991;28;20548;-64
2021/10/06 20:01:45;;;;;;;13.63;5.35;;;;;;;;;;10291422;28;20500;-62
2021/10/06 20:06:45;;;;;;;15.63;6.88;;;;;;;;;;10295458;28;20068;-64
2021/10/06 20:11:44;;;;;;;9.00;5.18;;;;;;;;;;10301181;28;20091;-64
2021/10/06 20:16:42;;;;;;;10.98;4.57;;;;;;;;;;10291027;28;20080;-63
2021/10/06 20:21:41;;;;;;;10.98;6.05;;;;;;;;;;10292261;28;20076;-64
2021/10/06 20:26:40;;;;;;;27.67;15.68;;;;;;;;;;10313887;28;20071;-64
2021/10/06 20:31:40;;;;;;;16.42;7.80;;;;;;;;;;10284224;28;20087;-64
2021/10/06 20:36:50;;;;;;;12.57;6.50;;;;;;;;;;10276264;28;20498;-63
2021/10/06 20:41:50;;;;;;;12.48;7.28;;;;;;;;;;10276831;28;20076;-62
2021/10/06 20:46:50;;;;;;;8.45;4.43;;;;;;;;;;10278650;28;20080;-64
2021/10/06 20:51:48;;;;;;;13.35;3.88;;;;;;;;;;10306746;28;20076;-63
2021/10/06 20:56:48;;;;;;;10.38;4.40;;;;;;;;;;10320269;28;20083;-64
2021/10/06 21:01:48;;;;;;;9.48;5.10;;;;;;;;;;10320840;28;20402;-64
2021/10/06 21:06:46;;;;;;;9.32;4.85;;;;;;;;;;10320892;28;20040;-63
2021/10/06 21:11:45;;;;;;;7.25;4.68;;;;;;;;;;10320682;28;20397;-63
2021/10/06 21:16:43;;;;;;;11.43;4.30;;;;;;;;;;10320145;28;20080;-63
2021/10/06 21:21:44;;;;;;;9.45;4.95;;;;;;;;;;10320080;28;20420;-63
2021/10/06 21:26:42;;;;;;;9.77;4.97;;;;;;;;;;10319919;28;20377;-63
2021/10/06 21:31:41;;;;;;;7.80;4.90;;;;;;;;;;10319343;28;20056;-64
2021/10/06 21:36:39;;;;;;;14.52;5.03;;;;;;;;;;10318674;28;20106;-63
2021/10/06 21:41:44;;;;;;;11.90;5.03;;;;;;;;;;10319385;28;20053;-64
2021/10/06 21:46:42;;;;;;;10.05;5.03;;;;;;;;;;10319266;28;20055;-64
2021/10/06 21:51:41;;;;;;;14.38;6.18;;;;;;;;;;10319091;28;20051;-63
2021/10/06 21:56:39;;;;;;;9.65;4.80;;;;;;;;;;10318683;28;20456;-64
2021/10/06 22:01:39;;;;;;;9.18;4.65;;;;;;;;;;10318561;28;20067;-64
2021/10/06 22:06:38;;;;;;;10.07;4.28;;;;;;;;;;10318252;28;20068;-63
2021/10/06 22:11:36;;;;;;;7.60;4.45;;;;;;;;;;10317964;28;20079;-64
2021/10/06 22:16:35;;;;;;;7.38;4.35;;;;;;;;;;10318195;28;20087;-64
2021/10/06 22:21:35;;;;;;;12.57;4.70;;;;;;;;;;10318011;28;20048;-63
2021/10/06 22:26:34;;;;;;;8.82;4.88;;;;;;;;;;10317459;28;20489;-64
2021/10/06 22:31:34;;;;;;;7.05;4.63;;;;;;;;;;10317044;28;20048;-63
2021/10/06 22:36:32;;;;;;;10.40;5.30;;;;;;;;;;10317166;28;20080;-63
2021/10/06 22:41:32;;;;;;;9.02;5.38;;;;;;;;;;10317260;28;20041;-64
2021/10/06 22:46:31;;;;;;;14.55;5.82;;;;;;;;;;10317068;28;20047;-64
2021/10/06 22:51:29;;;;;;;11.68;5.05;;;;;;;;;;10317099;28;20052;-64
2021/10/06 22:56:28;;;;;;;13.75;5.68;;;;;;;;;;10316662;28;20041;-64
2021/10/06 23:01:28;;;;;;;12.82;4.50;;;;;;;;;;10316680;28;20068;-64
2021/10/06 23:06:26;;;;;;;15.55;5.32;;;;;;;;;;10316955;28;20048;-64
2021/10/06 23:11:25;;;;;;;12.93;5.47;;;;;;;;;;10316579;28;20040;-64
2021/10/06 23:16:23;;;;;;;19.35;5.97;;;;;;;;;;10316540;28;20044;-64
2021/10/06 23:21:23;;;;;;;13.95;5.70;;;;;;;;;;10316352;28;20040;-64
2021/10/06 23:26:21;;;;;;;12.52;6.57;;;;;;;;;;10316082;28;20063;-64
2021/10/06 23:31:20;;;;;;;12.68;4.93;;;;;;;;;;10315848;28;20056;-64
2021/10/06 23:36:19;;;;;;;12.57;5.55;;;;;;;;;;10316337;28;20044;-64
2021/10/06 23:41:18;;;;;;;11.82;5.88;;;;;;;;;;10315870;28;20072;-64
2021/10/06 23:46:17;;;;;;;11.73;5.80;;;;;;;;;;10315805;28;20390;-64
2021/10/06 23:51:15;;;;;;;16.60;5.65;;;;;;;;;;10315598;28;20045;-64
2021/10/06 23:56:14;;;;;;;8.75;5.15;;;;;;;;;;10316642;28;20055;-64
